Time;durP1;ratioP1;P1;durP2;ratioP2;P2;SDS_P1;SDS_P2;PMS_P1;PMS_P2;Temp;Humidity;BMP_temperature;BMP_pressure;BME280_temperature;BME280_humidity;BME280_pressure;Samples;Min_cycle;Max_cycle;Signal;HPM_P1;HPM_P2
2024/02/14 00:04:08;;;;;;;6.63;3.00;;;;;;;7.17;58.76;100151.72;10223554;28;20052;-61
2024/02/14 00:09:10;;;;;;;4.90;2.40;;;;;;;7.13;58.76;100146.69;10225018;28;20459;-61
2024/02/14 00:14:12;;;;;;;9.68;3.70;;;;;;;7.04;59.11;100139.31;10221532;28;20051;-61
2024/02/14 00:19:14;;;;;;;6.45;3.33;;;;;;;6.97;59.12;100130.91;10222913;28;20052;-61
2024/02/14 00:24:18;;;;;;;4.68;2.60;;;;;;;7.02;59.25;100128.13;10232279;28;20055;-61
2024/02/14 00:29:21;;;;;;;6.53;2.75;;;;;;;7.14;59.09;100112.81;10226450;28;20051;-61
2024/02/14 00:34:23;;;;;;;6.03;2.50;;;;;;;7.21;59.32;100108.19;10227792;28;20117;-60
2024/02/14 00:39:26;;;;;;;4.20;2.28;;;;;;;7.19;59.56;100110.03;10226669;28;20490;-61
2024/02/14 00:44:27;;;;;;;4.20;2.38;;;;;;;7.19;59.61;100104.81;10225579;28;20063;-61
2024/02/14 00:49:31;;;;;;;4.40;2.17;;;;;;;7.04;60.04;100110.69;10230777;28;20047;-61
2024/02/14 00:54:34;;;;;;;3.08;1.98;;;;;;;6.98;59.97;100110.94;10227044;28;20055;-61
2024/02/14 00:59:36;;;;;;;4.57;2.45;;;;;;;7.06;59.98;100114.09;10228712;28;20082;-61
2024/02/14 01:04:38;;;;;;;3.92;2.38;;;;;;;7.16;59.80;100110.16;10200022;28;20086;-61
2024/02/14 01:09:40;;;;;;;4.68;2.13;;;;;;;7.24;59.77;100117.63;10226678;28;20073;-61
2024/02/14 01:14:43;;;;;;;3.08;1.50;;;;;;;7.29;59.48;100113.91;10223202;28;20054;-61
2024/02/14 01:19:45;;;;;;;2.25;1.48;;;;;;;7.46;59.31;100113.19;10220889;28;20403;-61
2024/02/14 01:24:47;;;;;;;2.83;1.33;;;;;;;7.70;58.80;100112.94;10217387;28;20097;-61
2024/02/14 01:29:49;;;;;;;2.90;1.42;;;;;;;7.83;58.50;100106.25;10229576;28;20047;-61
2024/02/14 01:34:52;;;;;;;3.03;1.95;;;;;;;7.87;58.52;100104.38;10227826;28;20046;-61
2024/02/14 01:39:54;;;;;;;4.20;1.92;;;;;;;7.77;58.29;100090.91;10226564;28;20043;-61
2024/02/14 01:44:56;;;;;;;2.13;1.30;;;;;;;7.87;58.33;100079.19;10222610;28;20427;-61
2024/02/14 01:49:59;;;;;;;1.95;1.00;;;;;;;7.93;57.69;100073.69;10224281;28;20557;-61
2024/02/14 01:55:04;;;;;;;2.42;1.38;;;;;;;8.00;57.70;100069.88;10226876;28;20045;-61
2024/02/14 02:00:17;;;;;;;1.85;1.15;;;;;;;7.96;57.52;100057.06;10226474;28;20047;-61
2024/02/14 02:05:19;;;;;;;2.88;1.08;;;;;;;7.86;57.83;100042.78;10232843;28;20044;-61
2024/02/14 02:10:22;;;;;;;1.48;1.10;;;;;;;7.68;58.01;100030.63;10230460;28;20495;-61
2024/02/14 02:15:44;;;;;;;1.63;1.10;;;;;;;7.73;57.97;100039.06;10232315;28;20043;-61
2024/02/14 02:21:06;;;;;;;2.50;1.17;;;;;;;7.80;57.76;100040.47;10233445;28;20117;-61
2024/02/14 02:26:09;;;;;;;1.92;0.98;;;;;;;7.83;57.78;100045.53;10227689;28;20062;-60
2024/02/14 02:31:31;;;;;;;2.00;1.33;;;;;;;7.93;57.58;100046.78;10225941;28;20091;-61
2024/02/14 02:36:33;;;;;;;1.73;1.00;;;;;;;7.98;57.44;100050.88;10232860;28;20066;-61
2024/02/14 02:41:57;;;;;;;1.65;1.20;;;;;;;8.02;57.52;100055.00;10256241;28;20071;-61
2024/02/14 02:47:32;;;;;;;1.48;1.00;;;;;;;8.12;57.55;100046.81;10232748;28;20047;-60
2024/02/14 02:52:54;;;;;;;3.03;1.00;;;;;;;8.22;57.28;100051.47;10231389;28;20054;-60
2024/02/14 02:58:16;;;;;;;3.63;0.88;;;;;;;8.21;57.21;100056.75;10227033;28;20051;-60
2024/02/14 03:03:18;;;;;;;2.10;0.95;;;;;;;8.18;57.42;100051.72;10226732;28;20054;-60
2024/02/14 03:08:39;;;;;;;1.80;1.00;;;;;;;8.19;57.58;100058.59;10231419;28;20059;-60
2024/02/14 03:14:01;;;;;;;3.55;1.10;;;;;;;8.33;57.46;100064.00;10234249;28;20134;-61
2024/02/14 03:19:23;;;;;;;1.30;0.70;;;;;;;8.45;57.36;100059.03;10229773;28;20113;-60
2024/02/14 03:24:25;;;;;;;1.65;1.10;;;;;;;8.44;57.10;100059.97;10228516;28;20930;-61
2024/02/14 03:29:27;;;;;;;2.95;0.88;;;;;;;8.45;57.16;100060.78;10230292;28;20060;-60
2024/02/14 03:34:30;;;;;;;4.22;1.65;;;;;;;8.42;57.25;100053.13;10231694;28;21179;-61
2024/02/14 03:39:32;;;;;;;0.95;0.73;;;;;;;8.46;57.41;100050.31;10230914;28;20057;-61
2024/02/14 03:44:34;;;;;;;1.02;0.77;;;;;;;8.47;57.34;100058.94;10228239;28;20061;-61
2024/02/14 03:49:36;;;;;;;3.95;1.08;;;;;;;8.40;57.50;100065.41;10225596;28;20066;-62
2024/02/14 03:54:38;;;;;;;2.47;0.98;;;;;;;8.48;57.44;100065.88;10231720;28;20058;-61
2024/02/14 03:59:40;;;;;;;4.32;1.73;;;;;;;8.58;57.39;100061.88;10228470;28;20517;-60
2024/02/14 04:04:43;;;;;;;0.93;0.70;;;;;;;8.60;57.25;100065.25;10233616;28;20053;-61
2024/02/14 04:09:46;;;;;;;3.17;1.10;;;;;;;8.62;57.28;100074.69;10229396;28;20051;-61
2024/02/14 04:14:48;;;;;;;1.48;0.93;;;;;;;8.59;57.55;100081.81;10229907;28;20580;-60
2024/02/14 04:19:50;;;;;;;2.05;1.10;;;;;;;8.59;57.67;100079.19;10230055;28;20051;-61
2024/02/14 04:24:52;;;;;;;2.83;0.82;;;;;;;8.60;57.79;100075.69;10226286;28;20054;-60
2024/02/14 04:29:54;;;;;;;1.13;0.98;;;;;;;8.40;58.91;100083.63;10233244;28;20039;-61
2024/02/14 04:34:57;;;;;;;2.00;1.00;;;;;;;8.32;59.17;100072.75;10230966;28;20051;-61
2024/02/14 04:40:00;;;;;;;2.90;0.95;;;;;;;8.20;60.12;100076.75;10215576;28;20784;-60
2024/02/14 04:45:03;;;;;;;2.15;0.98;;;;;;;8.11;60.42;100087.63;10228206;28;20133;-61
2024/02/14 04:50:06;;;;;;;1.88;1.42;;;;;;;8.25;60.27;100084.34;10227970;28;20137;-60
2024/02/14 04:55:08;;;;;;;2.22;1.20;;;;;;;8.30;60.13;100075.44;10226582;28;20063;-61
2024/02/14 05:00:11;;;;;;;2.65;1.02;;;;;;;8.32;60.25;100062.31;10227221;28;20403;-60
2024/02/14 05:05:13;;;;;;;2.20;0.80;;;;;;;8.29;60.25;100071.13;10229389;28;20058;-61
2024/02/14 05:10:28;;;;;;;1.23;0.98;;;;;;;8.26;60.44;100073.84;10226921;28;20063;-61
2024/02/14 05:15:30;;;;;;;2.50;1.15;;;;;;;8.23;60.80;100080.97;10226237;28;20062;-60
2024/02/14 05:20:32;;;;;;;1.17;0.90;;;;;;;8.23;61.04;100080.97;10227046;28;20670;-59
2024/02/14 05:25:34;;;;;;;3.00;1.10;;;;;;;8.17;61.21;100086.47;10211118;28;20419;-60
2024/02/14 05:30:38;;;;;;;2.00;1.08;;;;;;;8.20;61.07;100095.00;10231483;28;20555;-60
2024/02/14 05:35:50;;;;;;;3.97;1.88;;;;;;;8.28;61.01;100099.84;10231158;28;20062;-60
2024/02/14 05:40:52;;;;;;;5.32;2.50;;;;;;;8.35;61.01;100101.25;10231210;28;20061;-60
2024/02/14 05:45:54;;;;;;;2.60;1.50;;;;;;;8.24;61.28;100103.53;10234782;28;20618;-60
2024/02/14 05:50:56;;;;;;;2.20;1.30;;;;;;;8.33;61.07;100105.69;10237164;28;20189;-59
2024/02/14 05:55:58;;;;;;;2.15;1.20;;;;;;;8.41;61.00;100086.16;10228482;28;20121;-61
2024/02/14 06:01:00;;;;;;;3.08;1.27;;;;;;;8.38;61.17;100098.50;10236452;28;20055;-60
2024/02/14 06:06:02;;;;;;;3.33;1.15;;;;;;;8.37;61.21;100099.41;10242508;28;20143;-60
2024/02/14 06:11:04;;;;;;;2.10;1.20;;;;;;;8.43;61.15;100106.94;10237837;28;20057;-60
2024/02/14 06:16:08;;;;;;;2.72;1.15;;;;;;;8.40;61.36;100107.09;10232442;28;20047;-61
2024/02/14 06:21:10;;;;;;;1.70;0.93;;;;;;;8.42;61.26;100113.94;10236051;28;20051;-61
2024/02/14 06:26:13;;;;;;;1.35;0.90;;;;;;;8.45;61.25;100123.34;10230791;28;20047;-61
2024/02/14 06:31:15;;;;;;;1.00;0.90;;;;;;;8.47;61.30;100126.72;10231337;28;20062;-61
2024/02/14 06:36:17;;;;;;;2.22;0.98;;;;;;;8.44;61.18;100143.38;10231111;28;20563;-61
2024/02/14 06:41:20;;;;;;;2.05;1.00;;;;;;;8.30;61.86;100134.50;10202401;28;20094;-61
2024/02/14 06:46:22;;;;;;;1.13;1.00;;;;;;;8.46;61.26;100119.81;10237622;28;20062;-61
2024/02/14 06:51:24;;;;;;;4.57;1.95;;;;;;;8.40;61.40;100128.78;10231193;28;20222;-61
2024/02/14 06:56:26;;;;;;;3.88;1.58;;;;;;;8.36;61.56;100137.66;10229229;28;20058;-61
2024/02/14 07:01:28;;;;;;;1.40;1.00;;;;;;;8.40;61.78;100152.25;10229983;28;20043;-61
2024/02/14 07:06:31;;;;;;;1.85;1.05;;;;;;;8.56;61.34;100147.13;10227623;28;20043;-61
2024/02/14 07:11:33;;;;;;;2.85;1.23;;;;;;;8.67;61.08;100140.47;10229564;28;20051;-62
2024/02/14 07:16:35;;;;;;;1.00;0.90;;;;;;;8.78;61.07;100142.56;10231377;28;20593;-61
2024/02/14 07:21:37;;;;;;;3.30;1.10;;;;;;;8.80;60.83;100144.19;10232815;28;20053;-61
2024/02/14 07:26:41;;;;;;;1.73;1.48;;;;;;;8.87;60.84;100157.78;10232556;28;20048;-60
2024/02/14 07:31:43;;;;;;;1.98;0.90;;;;;;;8.84;60.98;100163.13;10226412;28;20050;-60
2024/02/14 07:36:46;;;;;;;3.80;1.33;;;;;;;8.92;60.89;100165.34;10228621;28;20128;-60
2024/02/14 07:41:49;;;;;;;2.05;1.23;;;;;;;9.08;60.50;100169.75;10229267;28;20523;-60
2024/02/14 07:46:52;;;;;;;1.67;1.17;;;;;;;9.30;60.42;100170.34;10228314;28;20047;-60
2024/02/14 07:51:54;;;;;;;2.75;1.08;;;;;;;9.49;60.07;100163.28;10229639;28;20138;-60
2024/02/14 07:56:56;;;;;;;1.20;0.95;;;;;;;9.54;59.97;100169.09;10230483;28;20055;-60
2024/02/14 08:01:58;;;;;;;5.97;1.35;;;;;;;9.70;59.70;100170.94;10230424;28;20101;-61
2024/02/14 08:07:00;;;;;;;2.17;1.67;;;;;;;9.88;59.32;100167.34;10228161;28;20047;-61
2024/02/14 08:12:02;;;;;;;1.20;0.80;;;;;;;9.95;59.37;100179.19;10229032;28;20079;-61
2024/02/14 08:17:04;;;;;;;1.48;1.02;;;;;;;9.98;59.38;100182.47;10220674;28;20055;-61
2024/02/14 08:22:07;;;;;;;3.75;1.05;;;;;;;9.85;59.43;100178.00;10224164;28;20138;-60
2024/02/14 08:27:09;;;;;;;3.00;1.40;;;;;;;9.78;59.77;100180.06;10230251;28;21157;-61
2024/02/14 08:32:11;;;;;;;2.25;1.25;;;;;;;9.86;59.57;100190.09;10228552;28;20058;-60
2024/02/14 08:37:13;;;;;;;5.10;1.90;;;;;;;10.05;59.43;100198.69;10226841;28;20142;-60
2024/02/14 08:42:15;;;;;;;1.08;0.80;;;;;;;10.00;59.53;100205.91;10231525;28;22039;-60
2024/02/14 08:47:17;;;;;;;0.93;0.80;;;;;;;10.26;59.13;100208.81;10233789;28;20043;-61
2024/02/14 08:52:20;;;;;;;1.70;1.02;;;;;;;10.26;59.19;100198.34;10227531;28;20071;-60
2024/02/14 08:57:23;;;;;;;2.75;1.00;;;;;;;10.43;58.75;100186.97;10229022;28;20043;-56
2024/02/14 09:02:25;;;;;;;0.80;0.80;;;;;;;10.80;58.31;100189.25;10228300;28;20070;-55
2024/02/14 09:07:28;;;;;;;0.93;0.85;;;;;;;10.85;58.10;100184.56;10229592;28;20137;-54
2024/02/14 09:12:30;;;;;;;1.20;1.10;;;;;;;10.97;58.02;100186.50;10230471;28;20590;-56
2024/02/14 09:17:32;;;;;;;1.08;0.70;;;;;;;10.94;58.05;100184.06;10229635;28;20039;-53
2024/02/14 09:22:35;;;;;;;1.58;1.00;;;;;;;11.14;57.72;100186.41;10226746;28;20047;-58
2024/02/14 09:27:37;;;;;;;0.63;0.63;;;;;;;11.11;57.66;100189.19;10229182;28;20489;-57
2024/02/14 09:32:39;;;;;;;2.78;1.05;;;;;;;11.13;57.86;100196.97;10231977;28;20170;-54
2024/02/14 09:37:42;;;;;;;0.77;0.77;;;;;;;11.02;58.07;100202.78;10227223;28;20401;-54
2024/02/14 09:42:51;;;;;;;1.38;0.70;;;;;;;11.28;57.73;100202.16;10227495;28;20060;-56
2024/02/14 09:47:55;;;;;;;1.25;1.00;;;;;;;11.48;57.46;100197.53;10232592;28;20043;-56
2024/02/14 09:52:58;;;;;;;1.23;0.80;;;;;;;11.59;57.10;100210.81;10224657;28;20051;-55
2024/02/14 09:58:04;;;;;;;0.60;0.60;;;;;;;11.66;57.16;100202.50;10225908;28;20513;-55
2024/02/14 10:03:06;;;;;;;1.65;0.85;;;;;;;11.90;56.76;100195.81;10228760;28;20120;-54
2024/02/14 10:08:10;;;;;;;1.27;0.75;;;;;;;12.12;56.38;100190.06;10231013;28;20090;-55
2024/02/14 10:13:12;;;;;;;2.38;1.00;;;;;;;12.39;55.83;100204.13;10229831;28;20061;-55
2024/02/14 10:18:15;;;;;;;0.45;0.45;;;;;;;12.30;56.11;100214.31;10231537;28;20054;-55
2024/02/14 10:23:17;;;;;;;0.65;0.43;;;;;;;12.39;55.30;100216.41;10226262;28;20066;-54
2024/02/14 10:28:21;;;;;;;2.42;0.70;;;;;;;12.45;55.63;100224.72;10235057;28;20036;-55
2024/02/14 10:33:34;;;;;;;2.45;0.60;;;;;;;12.54;55.21;100233.78;10236185;28;20798;-55
2024/02/14 10:38:37;;;;;;;2.00;0.90;;;;;;;12.56;55.34;100219.63;10233944;28;20055;-53
2024/02/14 10:43:40;;;;;;;2.92;1.00;;;;;;;12.43;55.14;100216.13;10226510;28;20051;-56
2024/02/14 10:48:42;;;;;;;0.70;0.50;;;;;;;12.27;55.40;100225.84;10236641;28;20047;-55
2024/02/14 10:53:46;;;;;;;1.63;0.75;;;;;;;12.43;55.42;100231.84;10229500;28;20507;-54
2024/02/14 10:58:55;;;;;;;0.47;0.47;;;;;;;12.34;55.26;100239.44;10235441;28;20047;-56
2024/02/14 11:03:59;;;;;;;1.08;0.57;;;;;;;12.41;55.54;100233.72;10229317;28;20121;-56
2024/02/14 11:09:07;;;;;;;0.63;0.60;;;;;;;12.46;54.98;100236.03;10235107;28;20126;-55
2024/02/14 11:14:12;;;;;;;1.85;0.55;;;;;;;12.50;55.24;100227.88;10230176;28;20200;-57
2024/02/14 11:19:17;;;;;;;1.20;0.50;;;;;;;12.52;55.03;100226.00;10230096;28;20039;-57
2024/02/14 11:24:19;;;;;;;0.43;0.43;;;;;;;12.49;55.11;100220.13;10227035;28;20488;-55
2024/02/14 11:29:29;;;;;;;0.45;0.45;;;;;;;12.48;54.84;100208.78;10226216;28;20054;-55
2024/02/14 11:34:33;;;;;;;0.57;0.55;;;;;;;12.68;54.93;100220.66;10234663;28;20248;-56
2024/02/14 11:39:39;;;;;;;0.85;0.55;;;;;;;12.63;54.84;100222.72;10232379;28;20942;-57
2024/02/14 11:44:42;;;;;;;1.13;0.70;;;;;;;12.76;54.64;100227.06;10229412;28;20059;-56
2024/02/14 11:49:46;;;;;;;0.50;0.45;;;;;;;12.55;55.06;100220.59;10233520;28;20050;-56
2024/02/14 11:54:51;;;;;;;0.35;0.35;;;;;;;12.53;55.30;100221.63;10230218;28;20063;-56
2024/02/14 11:59:54;;;;;;;0.75;0.60;;;;;;;12.61;54.97;100214.94;10229997;28;20523;-56
2024/02/14 12:04:56;;;;;;;0.88;0.60;;;;;;;12.61;55.07;100209.69;10229587;28;20077;-57
2024/02/14 12:09:59;;;;;;;0.28;0.28;;;;;;;12.78;54.87;100209.44;10233479;28;20054;-54
2024/02/14 12:15:01;;;;;;;0.73;0.50;;;;;;;12.94;54.84;100197.00;10211422;28;20205;-56
2024/02/14 12:20:13;;;;;;;0.88;0.50;;;;;;;13.03;54.44;100198.19;10230518;28;20055;-58
2024/02/14 12:25:16;;;;;;;0.88;0.50;;;;;;;12.98;54.87;100189.78;10230215;28;20051;-52
2024/02/14 12:30:19;;;;;;;0.50;0.50;;;;;;;12.86;54.92;100194.03;10229619;28;20128;-53
2024/02/14 12:35:22;;;;;;;0.90;0.68;;;;;;;12.76;55.01;100192.94;10229697;28;20051;-54
2024/02/14 12:40:25;;;;;;;0.55;0.55;;;;;;;12.80;55.32;100183.13;10233122;28;20050;-55
2024/02/14 12:45:27;;;;;;;1.63;1.00;;;;;;;12.75;55.36;100186.03;10227938;28;20047;-55
2024/02/14 12:50:30;;;;;;;0.35;0.35;;;;;;;12.81;55.27;100183.00;10226620;28;20100;-56
2024/02/14 12:55:33;;;;;;;0.52;0.52;;;;;;;12.67;55.74;100190.09;10228892;28;20423;-55
2024/02/14 13:00:35;;;;;;;0.57;0.55;;;;;;;12.65;55.90;100190.19;10227029;28;20043;-56
2024/02/14 13:05:38;;;;;;;0.57;0.43;;;;;;;12.86;56.50;100182.72;10223921;28;20063;-57
2024/02/14 13:10:40;;;;;;;0.93;0.52;;;;;;;13.27;56.22;100187.88;10213335;28;20050;-56
2024/02/14 13:15:44;;;;;;;1.33;0.70;;;;;;;13.65;55.64;100183.53;10224324;28;20402;-57
2024/02/14 13:20:46;;;;;;;0.43;0.43;;;;;;;13.90;55.38;100186.16;10218047;28;20047;-57
2024/02/14 13:25:48;;;;;;;0.75;0.40;;;;;;;14.04;55.06;100186.03;10220885;28;20099;-53
2024/02/14 13:30:50;;;;;;;1.75;0.60;;;;;;;13.74;56.00;100188.13;10214245;28;20052;-54
2024/02/14 13:35:55;;;;;;;1.08;0.30;;;;;;;13.35;56.58;100185.56;10214577;28;20055;-57
2024/02/14 13:40:57;;;;;;;0.73;0.60;;;;;;;13.15;56.88;100193.94;10220035;28;20058;-54
2024/02/14 13:45:59;;;;;;;0.55;0.55;;;;;;;12.93;57.33;100195.34;10219022;28;20380;-56
2024/02/14 13:51:03;;;;;;;1.65;0.70;;;;;;;12.74;57.90;100194.84;10220866;28;20060;-53
2024/02/14 13:56:06;;;;;;;0.50;0.50;;;;;;;12.71;58.56;100188.94;10225318;28;20058;-56
2024/02/14 14:01:08;;;;;;;0.63;0.50;;;;;;;12.54;59.10;100176.91;10231719;28;20053;-56
2024/02/14 14:06:10;;;;;;;0.60;0.60;;;;;;;12.42;59.45;100177.69;10230142;28;20257;-54
2024/02/14 14:11:12;;;;;;;0.70;0.30;;;;;;;12.60;59.35;100188.81;10227403;28;20047;-56
2024/02/14 14:16:15;;;;;;;0.63;0.47;;;;;;;12.74;59.49;100181.72;10228533;28;20082;-55
2024/02/14 14:21:17;;;;;;;0.30;0.30;;;;;;;12.81;59.28;100167.28;10226265;28;20463;-59
2024/02/14 14:26:19;;;;;;;1.17;0.80;;;;;;;12.68;59.77;100171.63;10222546;28;20499;-54
2024/02/14 14:31:21;;;;;;;0.93;0.70;;;;;;;12.73;59.71;100166.94;10227669;28;20055;-56
2024/02/14 14:36:23;;;;;;;0.40;0.40;;;;;;;12.88;59.92;100165.91;10225292;28;20100;-56
2024/02/14 14:41:26;;;;;;;0.65;0.65;;;;;;;12.83;59.75;100160.13;10227559;28;20043;-55
2024/02/14 14:46:30;;;;;;;0.60;0.60;;;;;;;12.80;59.89;100164.75;10228031;28;20109;-56
2024/02/14 14:51:32;;;;;;;1.77;0.63;;;;;;;12.71;60.01;100163.56;10228242;28;20471;-54
2024/02/14 14:56:34;;;;;;;1.02;0.60;;;;;;;12.67;60.18;100172.56;10228734;28;20086;-56
2024/02/14 15:01:36;;;;;;;1.20;0.80;;;;;;;12.70;60.58;100172.34;10227689;28;20083;-56
2024/02/14 15:06:38;;;;;;;1.33;0.50;;;;;;;12.69;60.66;100168.06;10228175;28;20046;-56
2024/02/14 15:11:41;;;;;;;1.33;0.85;;;;;;;12.70;60.75;100174.97;10228075;28;20047;-56
2024/02/14 15:16:43;;;;;;;0.75;0.60;;;;;;;12.67;61.14;100156.81;10227160;28;20063;-55
2024/02/14 15:21:45;;;;;;;0.70;0.70;;;;;;;12.55;60.92;100160.25;10224658;28;20101;-56
2024/02/14 15:26:52;;;;;;;0.88;0.73;;;;;;;12.48;61.35;100165.94;10226002;28;20105;-56
2024/02/14 15:37:17;;;;;;;1.58;1.08;;;;;;;12.23;61.79;100176.31;10227097;29;20495;-55
2024/02/14 15:42:19;;;;;;;0.63;0.63;;;;;;;12.13;62.21;100170.75;10220509;28;20071;-54
2024/02/14 15:47:21;;;;;;;0.75;0.57;;;;;;;12.00;62.68;100160.22;10224608;28;20043;-56
2024/02/14 15:52:23;;;;;;;0.50;0.50;;;;;;;11.94;62.99;100159.75;10221746;28;20046;-54
2024/02/14 15:57:26;;;;;;;1.10;0.80;;;;;;;11.80;63.70;100162.38;10221335;28;20499;-57
2024/02/14 16:02:28;;;;;;;1.00;0.73;;;;;;;11.80;63.60;100165.84;10222879;28;20043;-58
2024/02/14 16:07:30;;;;;;;1.17;0.80;;;;;;;11.71;64.07;100169.03;10223738;28;20079;-57
2024/02/14 16:12:32;;;;;;;1.58;0.98;;;;;;;11.77;63.85;100170.41;10223826;28;20097;-57
2024/02/14 16:17:34;;;;;;;1.17;0.98;;;;;;;11.80;64.07;100172.88;10223376;28;20055;-57
2024/02/14 16:22:36;;;;;;;1.23;1.10;;;;;;;11.76;64.17;100166.97;10219791;28;20047;-67
2024/02/14 16:27:39;;;;;;;1.00;0.90;;;;;;;11.70;64.08;100171.75;10221251;28;20075;-71
2024/02/14 16:32:41;;;;;;;2.72;1.88;;;;;;;11.69;64.37;100167.41;10216848;28;20551;-72
2024/02/14 16:37:43;;;;;;;2.67;1.30;;;;;;;11.72;64.52;100159.38;10224255;28;20517;-71
2024/02/14 16:42:45;;;;;;;1.55;1.00;;;;;;;11.65;64.92;100158.06;10223438;28;20055;-71
2024/02/14 16:47:48;;;;;;;1.98;1.20;;;;;;;11.66;64.96;100160.56;10224347;28;20561;-72
2024/02/14 16:52:50;;;;;;;3.20;1.30;;;;;;;11.65;65.06;100169.38;10224446;28;20507;-70
2024/02/14 16:57:52;;;;;;;2.13;1.25;;;;;;;11.56;65.35;100171.72;10223841;28;20035;-70
2024/02/14 17:02:54;;;;;;;2.08;1.15;;;;;;;11.50;65.86;100180.78;10218552;28;20392;-72
2024/02/14 17:08:04;;;;;;;3.90;1.60;;;;;;;11.49;65.93;100192.19;10215155;28;20051;-72
2024/02/14 17:13:07;;;;;;;3.45;1.10;;;;;;;11.59;66.13;100189.88;10222502;28;20047;-72
2024/02/14 17:18:09;;;;;;;2.08;1.10;;;;;;;11.50;65.75;100190.44;10233832;28;20599;-72
2024/02/14 17:23:12;;;;;;;1.23;1.00;;;;;;;11.53;65.74;100195.47;10224893;28;20040;-67
2024/02/14 17:28:15;;;;;;;1.20;1.00;;;;;;;11.60;65.68;100200.25;10220318;28;20077;-67
2024/02/14 17:33:19;;;;;;;1.63;1.20;;;;;;;11.65;65.52;100208.69;10235509;28;20063;-67
2024/02/14 17:38:22;;;;;;;3.13;1.70;;;;;;;11.62;65.58;100210.66;10225087;28;20041;-67
2024/02/14 17:43:24;;;;;;;5.47;3.20;;;;;;;11.59;65.65;100210.81;10225143;28;20500;-67
2024/02/14 17:48:27;;;;;;;2.83;1.70;;;;;;;11.51;66.08;100213.91;10231050;28;20051;-67
2024/02/14 17:53:29;;;;;;;3.17;1.85;;;;;;;11.58;65.97;100203.91;10227743;28;20047;-67
2024/02/14 17:58:32;;;;;;;1.45;1.02;;;;;;;11.52;66.05;100202.47;10225875;28;20070;-67
2024/02/14 18:03:35;;;;;;;1.65;0.95;;;;;;;11.52;66.17;100204.28;10225323;28;20179;-67
2024/02/14 18:08:37;;;;;;;1.15;0.98;;;;;;;11.47;66.32;100208.94;10223004;28;20416;-67
2024/02/14 18:13:39;;;;;;;0.88;0.80;;;;;;;11.53;66.12;100216.44;10222455;28;20050;-67
2024/02/14 18:18:42;;;;;;;1.38;1.05;;;;;;;11.43;66.40;100220.50;10235470;28;20054;-67
2024/02/14 18:23:46;;;;;;;0.77;0.73;;;;;;;11.42;66.49;100216.22;10222000;28;20043;-67
2024/02/14 18:28:51;;;;;;;0.70;0.70;;;;;;;11.42;66.52;100214.44;10225588;28;20043;-67
2024/02/14 18:33:53;;;;;;;1.38;1.23;;;;;;;11.37;66.59;100213.03;10232746;28;20478;-67
2024/02/14 18:38:56;;;;;;;1.20;1.00;;;;;;;11.34;66.92;100208.81;10244055;28;20549;-67
2024/02/14 18:44:03;;;;;;;1.88;1.20;;;;;;;11.35;66.80;100209.66;10237126;28;20193;-67
2024/02/14 18:49:05;;;;;;;2.85;1.63;;;;;;;11.31;67.12;100216.84;10226191;28;20039;-67
2024/02/14 18:54:08;;;;;;;2.50;1.42;;;;;;;11.27;67.24;100208.31;10242891;28;20082;-67
2024/02/14 18:59:10;;;;;;;1.65;1.30;;;;;;;11.26;67.36;100203.16;10233089;28;20190;-67
2024/02/14 19:04:12;;;;;;;1.48;1.13;;;;;;;11.24;67.37;100198.03;10223159;28;20431;-67
2024/02/14 19:09:14;;;;;;;2.38;1.60;;;;;;;11.19;67.82;100200.06;10223094;28;20043;-68
2024/02/14 19:14:16;;;;;;;2.00;1.40;;;;;;;11.11;68.27;100209.31;10222369;28;20058;-67
2024/02/14 19:19:19;;;;;;;2.45;1.40;;;;;;;11.14;68.17;100212.59;10213416;28;20054;-67
2024/02/14 19:24:21;;;;;;;8.70;1.65;;;;;;;11.10;68.29;100218.94;10208258;28;20047;-67
2024/02/14 19:29:24;;;;;;;3.55;2.17;;;;;;;11.04;68.52;100228.91;10217533;28;20763;-67
2024/02/14 19:34:27;;;;;;;1.27;1.15;;;;;;;10.90;69.77;100226.19;10223269;28;20517;-67
2024/02/14 19:39:31;;;;;;;1.20;1.05;;;;;;;11.03;68.75;100235.03;10226634;28;20778;-67
2024/02/14 19:44:34;;;;;;;1.17;1.05;;;;;;;11.04;68.75;100228.91;10231161;28;20047;-67
2024/02/14 19:49:36;;;;;;;1.83;1.20;;;;;;;11.13;68.48;100217.91;10239139;28;20120;-67
2024/02/14 19:54:38;;;;;;;1.33;1.00;;;;;;;11.05;68.67;100220.13;10232780;28;20104;-67
2024/02/14 19:59:40;;;;;;;1.60;1.10;;;;;;;10.96;69.05;100224.06;10212215;28;20501;-67
2024/02/14 20:04:43;;;;;;;1.25;1.10;;;;;;;10.94;69.16;100222.47;10212694;28;20960;-67
2024/02/14 20:09:46;;;;;;;1.90;1.15;;;;;;;10.85;69.63;100234.28;10220913;28;20035;-67
2024/02/14 20:14:48;;;;;;;1.58;1.13;;;;;;;10.88;69.22;100230.66;10209101;28;20043;-67
2024/02/14 20:19:51;;;;;;;1.20;1.00;;;;;;;10.97;69.18;100238.00;10220837;28;20387;-67
2024/02/14 20:24:53;;;;;;;1.98;1.20;;;;;;;10.97;69.09;100241.44;10223190;28;20071;-67
2024/02/14 20:29:55;;;;;;;2.10;1.10;;;;;;;10.98;69.35;100237.91;10226159;28;20051;-68
2024/02/14 20:34:57;;;;;;;1.42;1.10;;;;;;;11.02;69.22;100249.91;10222303;28;20454;-67
2024/02/14 20:40:00;;;;;;;2.75;1.30;;;;;;;11.00;69.27;100251.75;10225064;28;20134;-67
2024/02/14 20:45:02;;;;;;;2.28;1.40;;;;;;;10.99;69.40;100242.19;10221750;28;20145;-67
2024/02/14 20:50:06;;;;;;;1.15;0.98;;;;;;;11.08;69.38;100246.13;10220045;28;20061;-66
2024/02/14 20:55:08;;;;;;;1.20;0.80;;;;;;;11.17;69.13;100242.97;10220722;28;20047;-67
2024/02/14 21:00:11;;;;;;;1.48;0.95;;;;;;;11.17;69.13;100256.06;10219302;28;20082;-67
2024/02/14 21:05:14;;;;;;;1.92;1.23;;;;;;;11.15;69.16;100250.09;10221924;28;20047;-67
2024/02/14 21:10:16;;;;;;;3.35;1.65;;;;;;;11.15;69.21;100247.47;10220606;28;20183;-67
2024/02/14 21:15:21;;;;;;;3.28;1.90;;;;;;;11.06;69.50;100245.34;10215006;28;20140;-67
2024/02/14 21:20:25;;;;;;;3.65;1.77;;;;;;;11.11;69.56;100249.38;10214642;28;20426;-67
2024/02/14 21:25:28;;;;;;;1.70;1.30;;;;;;;11.15;69.42;100253.53;10209027;28;20053;-67
2024/02/14 21:30:30;;;;;;;2.17;1.55;;;;;;;11.12;69.38;100253.72;10205268;28;20039;-67
2024/02/14 21:35:35;;;;;;;4.95;2.17;;;;;;;11.11;69.53;100266.91;10215114;28;20051;-67
2024/02/14 21:40:38;;;;;;;1.38;1.15;;;;;;;11.17;69.46;100261.31;10211980;28;20059;-68
2024/02/14 21:45:40;;;;;;;1.25;0.90;;;;;;;11.21;69.46;100244.50;10211405;28;20051;-67
2024/02/14 21:50:42;;;;;;;1.98;0.90;;;;;;;11.22;69.33;100244.41;10220134;28;20407;-68
2024/02/14 21:55:44;;;;;;;0.95;0.80;;;;;;;11.19;69.31;100244.56;10222357;28;20140;-68
2024/02/14 22:00:46;;;;;;;1.38;1.00;;;;;;;11.18;69.30;100248.13;10217114;28;20053;-68
2024/02/14 22:05:48;;;;;;;1.20;1.10;;;;;;;11.14;69.75;100241.38;10223124;28;20058;-68
2024/02/14 22:10:51;;;;;;;1.60;1.00;;;;;;;11.20;69.47;100232.31;10220398;28;20236;-67
2024/02/14 22:15:54;;;;;;;1.92;1.00;;;;;;;11.11;69.87;100238.91;10222824;28;20043;-68
2024/02/14 22:20:56;;;;;;;1.23;1.00;;;;;;;11.13;69.59;100234.44;10225715;28;20422;-67
2024/02/14 22:25:58;;;;;;;2.50;0.93;;;;;;;11.17;69.73;100225.47;10228193;28;20039;-68
2024/02/14 22:31:03;;;;;;;2.05;0.88;;;;;;;11.21;69.46;100227.00;10227280;28;20151;-68
2024/02/14 22:36:06;;;;;;;1.35;1.00;;;;;;;11.12;69.65;100230.16;10226029;28;20083;-68
2024/02/14 22:41:13;;;;;;;2.83;1.10;;;;;;;11.09;69.61;100238.16;10226432;28;20059;-68
2024/02/14 22:46:16;;;;;;;5.03;1.83;;;;;;;10.95;70.17;100245.94;10224562;28;20130;-68
2024/02/14 22:51:19;;;;;;;1.90;1.08;;;;;;;10.96;70.06;100246.78;10224440;28;20052;-68
2024/02/14 22:56:22;;;;;;;1.73;1.13;;;;;;;11.02;69.89;100242.03;10210814;28;20046;-68
2024/02/14 23:01:24;;;;;;;3.03;1.42;;;;;;;11.09;69.69;100246.00;10230592;28;20065;-67
2024/02/14 23:06:28;;;;;;;1.80;1.05;;;;;;;11.07;69.49;100245.25;10225822;28;20047;-67
2024/02/14 23:11:38;;;;;;;1.50;1.10;;;;;;;11.05;69.71;100241.06;10226595;28;20059;-68
2024/02/14 23:16:40;;;;;;;1.88;1.20;;;;;;;11.07;69.60;100234.78;10222817;28;20043;-68
2024/02/14 23:21:42;;;;;;;1.67;1.00;;;;;;;11.10;69.54;100223.31;10226435;28;20046;-66
2024/02/14 23:26:44;;;;;;;1.42;1.08;;;;;;;11.15;69.35;100229.13;10225700;28;20047;-66